Angelo Coast Range Reserve, California Weather observations

Data are for 10 minute period ending at time listed.
 Day   Time   Solar   Ave.   Ave.  Ave.  Vector  Max.   Baro.   Total    
  of    of     Rad.   Air    Rel.  Wind   Wind   Wind  Press.  Precip.   
Year   Day            Temp.  Hum.  Speed  Dir.   Gust                    
2016   (PST)  Kw/m2    F      %     mph   deg.    mph    mb.     in.     
-------------------------------------------------------------------------
 271   19:30   0.00   67.2    52    0.9   172     1.5   961.5    0.00 
 271   19:40   0.00   66.7    53    0.3   179     0.9   961.6    0.00 
 271   19:50   0.00   65.9    54    0.0   179     0.4   961.7    0.00 
 271   20:00   0.00   65.2    55    0.9   182     1.9   961.8    0.00 
 271   20:10   0.00   64.8    55    1.0   172     1.8   961.9    0.00 
 271   20:20   0.00   64.5    56    1.2   176     1.8   962.0    0.00 
 271   20:30   0.00   64.1    56    0.8   178     1.4   962.0    0.00 
 271   20:40   0.00   63.4    57    0.0   185     0.7   962.2    0.00 
 271   20:50   0.00   62.7    58    0.0     0     0.0   962.3    0.00 
 271   21:00   0.00   62.1    59    0.5   185     1.1   962.3    0.00 
 271   21:10   0.00   61.5    60    0.0     0     0.0   962.3    0.00 
 271   21:20   0.00   60.9    60    0.0     0     0.0   962.3    0.00 
 271   21:30   0.00   60.6    60    0.0   185     0.6   962.4    0.00 
 271   21:40   0.00   60.2    61    0.0     0     0.0   962.5    0.00 
 271   21:50   0.00   59.8    61    0.2   185     0.8   962.5    0.00 
 271   22:00   0.00   59.3    62    0.0     0     0.0   962.5    0.00 
 271   22:10   0.00   58.6    64    0.0     0     0.0   962.6    0.00 
 271   22:20   0.00   57.8    65    0.0     0     0.0   962.5    0.00 
 271   22:30   0.00   57.5    66    0.0     0     0.0   962.5    0.00 
 271   22:40   0.00   57.2    66    0.0     0     0.0   962.6    0.00 
 271   22:50   0.00   56.8    67    0.0     0     0.0   962.6    0.00 
 271   23:00   0.00   56.5    68    0.0     0     0.0   962.6    0.00 
 271   23:10   0.00   56.3    68    0.0     0     0.0   962.7    0.00 
 271   23:20   0.00   55.7    69    0.0     0     0.0   962.7    0.00 
 271   23:30   0.00   55.4    70    0.0     0     0.0   962.7    0.00 
 271   23:40   0.00   55.4    69    0.0     0     0.0   962.8    0.00 
 271   23:50   0.00   55.4    68    0.0     0     0.0   962.8    0.00 
 272    0:00   0.00   55.1    69    0.0     0     0.0   962.8    0.00 
 272    0:10   0.00   54.6    70    0.0     0     0.0   962.9    0.00 
 272    0:20   0.00   54.3    70    0.0     0     0.0   962.8    0.00 
 272    0:30   0.00   53.7    72    0.0     0     0.0   962.9    0.00 
 272    0:40   0.00   53.6    72    0.5   185     0.9   963.0    0.00 
 272    0:50   0.00   53.5    72    0.0     0     0.0   963.0    0.00 
 272    1:00   0.00   53.3    72    0.0     0     0.0   963.0    0.00 
 272    1:10   0.00   52.7    74    0.0     0     0.0   963.0    0.00 
 272    1:20   0.00   52.4    75    0.0     0     0.0   963.0    0.00 
 272    1:30   0.00   52.0    76    0.0     0     0.0   963.0    0.00 
 272    1:40   0.00   51.5    77    0.0     0     0.0   963.0    0.00 
 272    1:50   0.00   51.3    78    0.0     0     0.0   962.9    0.00 
 272    2:00   0.00   51.0    78    0.0     0     0.0   962.9    0.00 
 272    2:10   0.00   50.8    78    0.0     0     0.0   962.8    0.00 
 272    2:20   0.00   50.6    79    0.0     0     0.0   962.8    0.00 
 272    2:30   0.00   50.2    81    0.0     0     0.0   962.8    0.00 
 272    2:40   0.00   50.1    81    0.0     0     0.0   962.7    0.00 
 272    2:50   0.00   49.9    81    0.5   185     1.2   962.7    0.00 
 272    3:00   0.00   50.1    79    0.0     0     0.0   962.7    0.00 
 272    3:10   0.00   50.1    79    0.2   185     0.8   962.7    0.00 
 272    3:20   0.00   49.9    79    0.5   185     0.7   962.6    0.00 
 272    3:30   0.00   49.7    80    0.9   187     1.7   962.6    0.00 
 272    3:40   0.00   49.6    80    1.0   187     1.5   962.7    0.00 
 272    3:50   0.00   49.5    80    0.3   182     1.3   962.7    0.00 
 272    4:00   0.00   49.0    81    0.0     0     0.0   962.7    0.00 
 272    4:10   0.00   48.7    82    0.0   181     0.4   962.7    0.00 
 272    4:20   0.00   48.6    82    0.0     0     0.0   962.8    0.00 
 272    4:30   0.00   48.6    82    0.3   181     0.9   962.8    0.00 
 272    4:40   0.00   48.4    83    0.0     0     0.0   962.8    0.00 
 272    4:50   0.00   48.2    83    0.2   181     0.9   962.9    0.00 
 272    5:00   0.00   48.2    83    0.2   181     0.9   962.9    0.00 
 272    5:10   0.00   48.0    83    0.1   192     0.9   962.9    0.00 
 272    5:20   0.00   47.8    84    0.1   203     0.8   962.9    0.00 
 272    5:30   0.00   47.6    84    0.0     0     0.0   963.0    0.00 
 272    5:40   0.00   47.3    86    0.0   207     0.7   963.0    0.00 
 272    5:50   0.00   47.2    86    0.0     0     0.0   963.1    0.00 
 272    6:00   0.00   46.9    87    0.0     0     0.0   963.2    0.00 
 272    6:10   0.00   46.6    88    0.0     0     0.0   963.2    0.00 
 272    6:20   0.00   46.4    88    0.0     0     0.0   963.3    0.00 
 272    6:30   0.00   46.4    88    0.0     0     0.0   963.4    0.00 
 272    6:40   0.01   46.4    88    0.0   225     0.2   963.4    0.00 
 272    6:50   0.01   46.6    88    0.7   173     1.7   963.4    0.00 
 272    7:00   0.01   47.0    86    0.1   185     0.9   963.4    0.00 
 272    7:10   0.01   47.0    86    0.2   182     1.4   963.4    0.00 
 272    7:20   0.01   47.0    86    0.0     0     0.0   963.4    0.00 
 272    7:30   0.01   47.0    86    0.0     0     0.0   963.5    0.00 
 272    7:40   0.01   47.1    86    0.0     0     0.0   963.5    0.00 
 272    7:50   0.01   47.4    85    0.0   182     0.8   963.5    0.00 
 272    8:00   0.02   47.6    84    0.5   179     1.2   963.5    0.00 
 272    8:10   0.03   48.1    82    0.6   170     2.0   963.4    0.00 
 272    8:20   0.03   49.1    80    0.2   111     1.7   963.3    0.00 
 272    8:30   0.03   50.1    79    0.0    79     0.4   963.2    0.00 
 272    8:40   0.03   51.6    77    0.0     0     0.0   963.1    0.00 
 272    8:50   0.07   53.6    73    0.1    79     0.6   963.1    0.00 
 272    9:00   0.41   56.7    69    0.0    79     0.4   963.0    0.00 
 272    9:10   0.49   61.9    59    0.0     0     0.0   962.9    0.00 
 272    9:20   0.52   65.9    52    0.0     0     0.0   962.8    0.00 
 272    9:30   0.54   68.8    49    0.1   109     1.0   962.7    0.00 
 272    9:40   0.57   71.6    45    0.6   106     1.4   962.6    0.00 
 272    9:50   0.59   73.5    43    0.8   110     1.3   962.6    0.00 
 272   10:00   0.61   74.5    42    0.9   101     1.8   962.6    0.00 
 272   10:10   0.63   76.0    40    0.6    95     1.4   962.8    0.00 
 272   10:20   0.65   77.6    38    1.1    87     1.5   962.9    0.00 
 272   10:30   0.66   78.8    38    0.4    86     1.2   962.8    0.00 
 272   10:40   0.68   80.8    36    0.4    78     1.2   962.7    0.00 
 272   10:50   0.69   82.6    34    0.3    49     1.3   962.7    0.00 
 272   11:00   0.70   84.0    32    0.1    71     0.7   962.6    0.00 
 272   11:10   0.71   85.7    30    0.0    58     1.0   962.6    0.00 
 272   11:20   0.72   88.3    27    0.7    86     2.2   962.5    0.00 
 272   11:30   0.73   88.8    28    1.1    68     3.1   962.4    0.00 
 272   11:40   0.73   89.2    28    0.6   326     2.1   962.3    0.00 
 272   11:50   0.73   89.7    28    1.3   283     4.0   962.3    0.00 
 272   12:00   0.73   90.1    27    1.3   171     5.4   962.2    0.00 
 272   12:10   0.73   89.7    27    3.5   165     7.9   962.0    0.00 
 272   12:20   0.73   90.1    27    2.8   183     7.2   962.0    0.00 
 272   12:30   0.72   90.0    27    2.4   165     6.8   962.0    0.00 
 272   12:40   0.72   91.2    27    1.8   264     5.9   962.0    0.00 
 272   12:50   0.72   90.8    27    2.2    34     6.4   962.0    0.00 
 272   13:00   0.71   90.6    26    2.7    23     6.3   962.0    0.00 
 272   13:10   0.70   90.4    26    2.2   339     6.3   961.8    0.00 
 272   13:20   0.69   90.0    25    2.1    22     6.4   961.8    0.00 
 272   13:30   0.64   89.9    25    3.0    23     8.1   961.8    0.00 
 272   13:40   0.66   90.2    25    2.1    34     6.1   961.7    0.00 
 272   13:50   0.64   90.2    25    1.8   318     5.0   961.7    0.00 
 272   14:00   0.63   89.7    24    2.7    27     9.3   961.6    0.00 
 272   14:10   0.61   90.3    24    1.8   320     6.1   961.5    0.00 
 272   14:20   0.59   89.6    25    2.7   329     6.9   961.5    0.00 
 272   14:30   0.57   90.2    24    2.7   351     6.1   961.6    0.00 
 272   14:40   0.54   89.8    24    3.6    15     6.8   961.6    0.00 
 272   14:50   0.52   89.1    25    3.0     4     7.4   961.6    0.00 
 272   15:00   0.39   88.0    26    3.2    14    10.2   961.6    0.00 
 272   15:10   0.06   86.6    28    1.5    17     6.3   961.5    0.00 
 272   15:20   0.18   86.1    27    1.6     3     5.9   961.6    0.00 
 272   15:30   0.04   84.9    28    1.7     9     5.3   961.6    0.00 
 272   15:40   0.04   84.0    30    1.4   205     4.5   961.6    0.00 
 272   15:50   0.03   83.6    30    1.5   348     4.2   961.6    0.00 
 272   16:00   0.03   84.0    30    1.3     9     3.3   961.6    0.00 
 272   16:10   0.03   82.5    32    0.9   160     2.8   961.6    0.00 
 272   16:20   0.03   82.2    33    0.9   157     2.6   961.6    0.00 
 272   16:30   0.02   81.6    34    1.3   125     4.6   961.6    0.00 
 272   16:40   0.01   80.7    36    1.3   184     3.7   961.6    0.00 
 272   16:50   0.01   79.3    37    2.7   177     5.6   961.6    0.00 
 272   17:00   0.01   79.1    38    3.0   172     5.6   961.6    0.00 
 272   17:10   0.01   77.9    40    1.6   188     4.9   961.7    0.00 
 272   17:20   0.01   76.2    43    0.3   184     1.8   961.7    0.00 
 272   17:30   0.01   74.8    46    0.0   339     0.5   961.7    0.00 
 272   17:40   0.01   73.4    48    0.3    46     1.8   961.6    0.00 
 272   17:50   0.01   72.6    48    0.4   136     1.5   961.5    0.00 
 272   18:00   0.00   71.7    51    0.6   183     1.2   961.6    0.00 
 272   18:10   0.00   70.9    53    1.0   169     2.7   961.7    0.00 
 272   18:20   0.00   70.0    54    0.8   186     3.1   961.7    0.00 
 272   18:30   0.00   69.1    55    1.1   152     2.6   961.7    0.00 
 272   18:40   0.00   68.4    56    0.6   192     2.0   961.8    0.00 
 272   18:50   0.00   67.6    56    0.6   201     1.9   961.9    0.00 
 272   19:00   0.00   66.9    58    0.7   176     1.8   962.0    0.00 
 272   19:10   0.00   66.4    58    0.8   174     1.6   962.1    0.00 
 272   19:20   0.00   65.6    60    0.7   183     1.5   962.2    0.00 

Return to Angelo Coast Range Reserve graphs page.


Western Regional Climate Center,wrcc@dri.edu